Time;durP1;ratioP1;P1;durP2;ratioP2;P2;SDS_P1;SDS_P2;PMS_P1;PMS_P2;Temp;Humidity;BMP_temperature;BMP_pressure;BME280_temperature;BME280_humidity;BME280_pressure;Samples;Min_cycle;Max_cycle;Signal;HPM_P1;HPM_P2
2023/05/29 00:01:31;;;;;;;6.80;2.70;;;;;;;8.45;72.73;100809.36;102574;277;120987;-54
2023/05/29 00:04:11;;;;;;;5.20;2.60;;;;;;;8.43;72.72;100806.30;102632;277;105640;-53
2023/05/29 00:06:53;;;;;;;5.70;3.10;;;;;;;8.39;73.01;100802.77;102627;277;114405;-53
2023/05/29 00:09:37;;;;;;;4.70;2.40;;;;;;;8.37;73.10;100799.42;102564;277;96823;-53
2023/05/29 00:12:14;;;;;;;7.80;3.10;;;;;;;8.35;73.14;100798.20;102639;277;97202;-54
2023/05/29 00:14:51;;;;;;;4.60;2.60;;;;;;;8.32;73.18;100795.67;102577;277;120472;-53
2023/05/29 00:17:34;;;;;;;7.40;2.80;;;;;;;8.30;73.16;100796.01;102514;267;105000;-56
2023/05/29 00:20:14;;;;;;;4.90;2.70;;;;;;;8.28;73.19;100795.73;102572;277;114366;-56
2023/05/29 00:22:49;;;;;;;5.10;3.00;;;;;;;8.25;73.40;100792.57;102643;277;93782;-54
2023/05/29 00:25:22;;;;;;;;;;;;;;;8.25;73.36;100791.90;102641;278;97981;-52
2023/05/29 00:28:02;;;;;;;6.30;3.00;;;;;;;8.25;73.42;100795.30;102674;277;120408;-57
2023/05/29 00:30:44;;;;;;;5.20;3.00;;;;;;;8.25;73.39;100797.61;102703;277;105361;-53
2023/05/29 00:33:22;;;;;;;7.00;3.00;;;;;;;8.25;73.63;100796.95;102614;277;113840;-53
2023/05/29 00:36:06;;;;;;;6.90;3.10;;;;;;;8.21;73.90;100804.31;102657;277;97006;-56
2023/05/29 00:38:50;;;;;;;3.60;2.60;;;;;;;8.17;73.96;100804.99;102609;277;96968;-57
2023/05/29 00:41:34;;;;;;;5.80;2.70;;;;;;;8.12;74.00;100805.72;102602;277;120677;-54
2023/05/29 00:44:16;;;;;;;6.20;3.20;;;;;;;8.08;74.20;100803.39;102575;277;105935;-50
2023/05/29 00:46:55;;;;;;;5.50;2.90;;;;;;;8.06;74.21;100808.12;102606;277;113793;-57
2023/05/29 00:49:29;;;;;;;5.30;3.10;;;;;;;8.03;74.26;100809.15;102617;277;95245;-56
2023/05/29 00:52:12;;;;;;;7.50;2.70;;;;;;;8.01;74.35;100809.80;102643;277;97690;-58
2023/05/29 00:54:56;;;;;;;5.50;2.70;;;;;;;7.97;74.37;100806.98;102610;277;120028;-57
2023/05/29 00:57:38;;;;;;;7.00;3.10;;;;;;;7.95;74.38;100807.04;102640;278;104460;-54
2023/05/29 01:00:27;;;;;;;5.30;2.80;;;;;;;7.91;74.53;100809.52;102627;277;114554;-52
2023/05/29 01:03:07;;;;;;;6.30;2.60;;;;;;;7.88;74.71;100810.30;102671;277;97452;-54
2023/05/29 01:05:47;;;;;;;6.10;2.70;;;;;;;7.85;74.69;100812.15;102727;277;98336;-54
2023/05/29 01:08:25;;;;;;;7.10;2.90;;;;;;;7.84;74.85;100809.28;102680;278;119800;-54
2023/05/29 01:11:16;;;;;;;4.60;2.60;;;;;;;7.82;74.80;100806.79;102704;277;104898;-56
2023/05/29 01:14:00;;;;;;;5.40;2.70;;;;;;;7.77;74.98;100803.58;102647;277;113867;-54
2023/05/29 01:16:53;;;;;;;7.70;3.20;;;;;;;7.71;74.95;100800.59;102619;277;92922;-58
2023/05/29 01:19:43;;;;;;;4.60;3.20;;;;;;;7.62;75.12;100806.05;102664;277;97492;-57
2023/05/29 01:22:39;;;;;;;4.70;2.70;;;;;;;7.55;75.20;100805.15;102635;278;121083;-56
2023/05/29 01:25:31;;;;;;;7.00;2.90;;;;;;;7.49;75.16;100806.80;102649;277;104960;-57
2023/05/29 01:28:21;;;;;;;4.20;2.80;;;;;;;7.50;75.40;100800.10;102565;277;114498;-57
2023/05/29 01:31:02;;;;;;;5.60;3.60;;;;;;;7.51;75.49;100803.05;102610;277;96362;-52
2023/05/29 01:33:56;;;;;;;7.00;2.60;;;;;;;7.50;75.74;100805.29;102589;277;98325;-53
2023/05/29 01:36:32;;;;;;;5.10;2.80;;;;;;;7.51;75.57;100802.30;102587;277;119131;-54
2023/05/29 01:39:13;;;;;;;4.80;3.60;;;;;;;7.50;75.50;100808.64;102668;277;104880;-53
2023/05/29 01:41:56;;;;;;;6.50;3.10;;;;;;;7.48;75.51;100805.11;102647;277;114551;-57
2023/05/29 01:44:38;;;;;;;5.00;2.80;;;;;;;7.46;75.69;100806.27;102704;277;94705;-56
2023/05/29 01:47:19;;;;;;;5.30;2.90;;;;;;;7.41;75.75;100805.67;102747;277;98496;-53
2023/05/29 01:50:06;;;;;;;4.50;2.70;;;;;;;7.37;75.85;100807.20;102667;277;119386;-53
2023/05/29 01:52:50;;;;;;;4.50;3.00;;;;;;;7.36;76.00;100806.24;102642;277;105726;-56
2023/05/29 01:55:34;;;;;;;5.70;2.80;;;;;;;7.32;76.07;100809.31;102665;277;114935;-56
2023/05/29 01:58:20;;;;;;;6.30;3.20;;;;;;;7.34;76.15;100806.07;102662;277;94270;-57
2023/05/29 02:01:03;;;;;;;5.80;3.10;;;;;;;7.33;76.26;100804.38;102673;277;98084;-53
2023/05/29 02:03:42;;;;;;;5.40;2.80;;;;;;;7.33;76.13;100805.52;102556;278;119906;-54
2023/05/29 02:06:19;;;;;;;6.70;3.00;;;;;;;7.32;76.35;100802.39;102589;277;104453;-56
2023/05/29 02:09:07;;;;;;;7.70;3.30;;;;;;;7.26;76.44;100802.75;102572;266;116367;-57
2023/05/29 02:11:56;;;;;;;4.60;2.90;;;;;;;7.19;76.49;100794.98;102547;278;96843;-57
2023/05/29 02:14:36;;;;;;;5.90;2.90;;;;;;;7.15;76.61;100787.64;102576;277;96698;-56
2023/05/29 02:17:27;;;;;;;6.40;3.10;;;;;;;7.12;76.82;100782.81;102590;277;121446;-57
2023/05/29 02:20:08;;;;;;;7.40;2.70;;;;;;;7.11;76.83;100787.52;102577;277;104397;-56
2023/05/29 02:22:45;;;;;;;5.50;3.00;;;;;;;7.11;76.85;100781.93;102662;277;113566;-57
2023/05/29 02:25:25;;;;;;;6.90;3.40;;;;;;;7.16;76.98;100784.33;102562;277;96790;-57
2023/05/29 02:28:06;;;;;;;5.30;3.20;;;;;;;7.17;77.14;100784.60;102535;278;96598;-57
2023/05/29 02:30:50;;;;;;;6.60;3.30;;;;;;;7.18;77.25;100783.20;102619;277;119490;-57
2023/05/29 02:33:31;;;;;;;4.40;2.80;;;;;;;7.17;77.25;100784.23;102707;277;104796;-57
2023/05/29 02:36:11;;;;;;;7.90;3.70;;;;;;;7.15;77.22;100782.81;102656;277;114076;-53
2023/05/29 02:38:50;;;;;;;6.30;3.40;;;;;;;7.11;77.24;100779.83;102633;277;95251;-53
2023/05/29 02:41:28;;;;;;;5.30;2.90;;;;;;;7.10;77.36;100778.36;102653;277;97933;-54
2023/05/29 02:44:07;;;;;;;6.00;3.20;;;;;;;7.07;77.27;100776.65;102620;277;120462;-54
2023/05/29 02:46:48;;;;;;;4.30;2.80;;;;;;;7.08;77.48;100774.20;102616;278;104793;-57
2023/05/29 02:49:26;;;;;;;6.30;2.60;;;;;;;7.11;77.44;100775.36;102619;278;113110;-57
2023/05/29 02:52:07;;;;;;;5.00;3.20;;;;;;;7.14;77.44;100774.99;102612;277;95691;-57
2023/05/29 02:54:42;;;;;;;6.00;3.40;;;;;;;7.19;77.43;100774.54;102629;277;98328;-55
2023/05/29 02:57:17;;;;;;;5.10;2.80;;;;;;;7.26;77.51;100775.91;102639;277;120579;-57
2023/05/29 02:59:50;;;;;;;;;;;;;;;7.33;77.46;100777.90;102608;278;104547;-57
2023/05/29 03:02:35;;;;;;;5.70;3.00;;;;;;;7.36;77.62;100775.64;102604;277;115657;-56
2023/05/29 03:05:16;;;;;;;4.40;3.10;;;;;;;7.35;77.80;100775.84;102579;277;96847;-57
2023/05/29 03:08:00;;;;;;;4.70;3.20;;;;;;;7.39;77.95;100776.23;102644;277;95390;-56
2023/05/29 03:10:39;;;;;;;7.10;3.10;;;;;;;7.44;78.06;100778.66;102619;277;120697;-57
2023/05/29 03:13:25;;;;;;;7.40;3.10;;;;;;;7.52;78.00;100778.75;102620;277;105732;-56
2023/05/29 03:16:04;;;;;;;5.90;3.30;;;;;;;7.60;78.02;100776.45;102629;277;114958;-57
2023/05/29 03:18:45;;;;;;;6.20;3.10;;;;;;;7.69;78.10;100775.61;102616;277;93188;-57
2023/05/29 03:21:27;;;;;;;6.80;3.20;;;;;;;7.82;78.02;100778.23;102674;277;96993;-54
2023/05/29 03:24:18;;;;;;;6.00;3.30;;;;;;;7.96;77.78;100781.06;102650;266;119631;-53
2023/05/29 03:26:57;;;;;;;5.40;3.60;;;;;;;8.12;77.74;100777.00;102679;277;104750;-57
2023/05/29 03:29:37;;;;;;;4.80;3.40;;;;;;;8.26;77.99;100780.17;102613;277;114852;-57
2023/05/29 03:32:12;;;;;;;5.90;3.00;;;;;;;8.76;77.83;100778.93;102616;277;94647;-57
2023/05/29 03:34:52;;;;;;;8.20;4.10;;;;;;;9.67;76.94;100779.02;102628;277;97910;-57
2023/05/29 03:37:32;;;;;;;6.40;3.20;;;;;;;10.60;75.90;100783.11;102672;277;119120;-57
2023/05/29 03:40:13;;;;;;;6.20;3.10;;;;;;;11.66;74.68;100782.58;102595;277;105610;-56
2023/05/29 03:42:51;;;;;;;5.40;3.40;;;;;;;12.50;73.34;100783.60;102632;277;112498;-54
2023/05/29 03:45:29;;;;;;;4.70;3.50;;;;;;;13.20;72.16;100783.65;102608;277;93231;-57
2023/05/29 03:48:07;;;;;;;6.20;3.70;;;;;;;14.05;71.16;100782.76;102670;277;97432;-55
2023/05/29 03:50:50;;;;;;;5.50;3.30;;;;;;;14.75;69.40;100781.11;102634;277;119736;-54
2023/05/29 03:53:27;;;;;;;4.60;3.00;;;;;;;15.50;68.33;100778.95;102700;277;105042;-54
2023/05/29 03:56:07;;;;;;;4.00;2.90;;;;;;;16.34;67.00;100774.81;102627;277;114317;-58
2023/05/29 03:58:50;;;;;;;6.00;3.20;;;;;;;17.09;65.57;100771.48;102653;277;95021;-56
2023/05/29 04:01:30;;;;;;;4.60;3.00;;;;;;;17.74;64.13;100769.63;102676;265;97132;-57
2023/05/29 04:04:09;;;;;;;4.20;3.00;;;;;;;18.36;62.60;100771.68;102691;277;121458;-57
2023/05/29 04:06:50;;;;;;;6.20;3.30;;;;;;;18.94;61.60;100773.26;102664;278;104678;-55
2023/05/29 04:09:32;;;;;;;4.90;3.30;;;;;;;19.60;60.43;100778.77;102615;277;113251;-55
2023/05/29 04:12:08;;;;;;;5.30;3.60;;;;;;;19.94;58.79;100780.73;102585;277;94760;-58
2023/05/29 04:15:10;;;;;;;5.60;3.00;;;;;;;20.45;57.33;100781.49;102644;277;98582;-55
2023/05/29 04:17:48;;;;;;;6.30;3.40;;;;;;;19.87;56.60;100784.78;102637;277;119655;-55
2023/05/29 04:20:27;;;;;;;5.90;3.30;;;;;;;18.72;56.84;100790.73;102595;277;104721;-55
2023/05/29 04:23:08;;;;;;;10.80;4.20;;;;;;;17.77;57.25;100792.08;102617;277;114129;-54
2023/05/29 04:25:52;;;;;;;8.70;3.90;;;;;;;17.46;57.75;100794.14;102613;277;95120;-57
2023/05/29 04:28:33;;;;;;;6.50;3.90;;;;;;;17.02;58.29;100799.23;102557;277;97857;-57
2023/05/29 04:31:16;;;;;;;4.90;3.50;;;;;;;16.49;59.08;100799.09;102603;277;120227;-58
2023/05/29 04:33:54;;;;;;;5.90;3.60;;;;;;;16.12;59.77;100798.15;102586;277;105018;-54
2023/05/29 04:36:38;;;;;;;6.80;4.30;;;;;;;15.89;60.54;100801.92;102624;277;114687;-57
2023/05/29 04:39:24;;;;;;;6.90;3.70;;;;;;;16.46;60.62;100801.27;102636;277;94175;-57
2023/05/29 04:42:02;;;;;;;5.70;3.50;;;;;;;16.98;60.31;100797.11;102762;277;97593;-54
2023/05/29 04:44:52;;;;;;;8.50;4.10;;;;;;;16.80;60.27;100796.11;102687;277;119850;-54
2023/05/29 04:47:33;;;;;;;7.50;4.40;;;;;;;16.90;60.46;100794.27;102643;278;105391;-54
2023/05/29 04:50:16;;;;;;;17.30;4.50;;;;;;;17.08;60.37;100791.20;102664;277;114821;-53
2023/05/29 04:53:01;;;;;;;15.30;5.30;;;;;;;17.31;60.02;100793.30;102690;277;91842;-54
2023/05/29 04:55:42;;;;;;;10.80;4.80;;;;;;;18.45;59.67;100792.36;102683;277;97923;-58
2023/05/29 04:58:32;;;;;;;17.10;5.40;;;;;;;20.21;58.47;100787.41;102592;277;121330;-56
2023/05/29 05:01:14;;;;;;;17.00;5.70;;;;;;;21.84;56.29;100779.95;102587;278;105238;-58
2023/05/29 05:04:00;;;;;;;15.70;4.70;;;;;;;22.73;54.66;100774.27;102585;277;114381;-58
2023/05/29 05:06:36;;;;;;;14.40;5.00;;;;;;;23.92;52.94;100777.05;102543;270;94599;-57
2023/05/29 05:09:19;;;;;;;20.00;5.90;;;;;;;24.92;50.89;100769.36;102543;279;96499;-58
2023/05/29 05:11:55;;;;;;;16.60;5.20;;;;;;;25.98;48.79;100765.76;102533;279;121553;-58
2023/05/29 05:14:36;;;;;;;13.40;4.40;;;;;;;26.92;47.36;100761.42;102527;279;105444;-57
2023/05/29 05:17:17;;;;;;;13.40;5.10;;;;;;;27.72;45.57;100767.00;102505;279;114457;-58
2023/05/29 05:19:54;;;;;;;8.60;5.00;;;;;;;28.37;43.01;100763.48;102499;279;94079;-63
2023/05/29 05:22:28;;;;;;;10.20;4.80;;;;;;;28.77;40.69;100765.77;102505;279;96777;-64
2023/05/29 05:25:15;;;;;;;8.20;4.70;;;;;;;28.92;39.29;100771.05;102480;268;120403;-64
2023/05/29 05:27:59;;;;;;;6.00;4.20;;;;;;;29.09;38.38;100772.06;102647;279;104290;-64
2023/05/29 05:30:46;;;;;;;6.10;3.20;;;;;;;29.25;36.90;100760.80;102588;279;114252;-64
2023/05/29 05:33:43;;;;;;;6.20;3.60;;;;;;;29.37;35.97;100758.27;102663;279;92401;-63
2023/05/29 05:36:28;;;;;;;8.30;3.30;;;;;;;29.39;35.23;100763.01;102618;279;96974;-63
2023/05/29 05:39:15;;;;;;;6.00;3.50;;;;;;;29.49;34.36;100767.01;102612;279;120869;-64
2023/05/29 05:41:55;;;;;;;6.50;3.50;;;;;;;29.75;33.89;100766.47;102513;279;104189;-64
2023/05/29 05:44:40;;;;;;;8.80;3.70;;;;;;;30.00;33.25;100768.00;102445;279;114155;-65
2023/05/29 05:47:22;;;;;;;7.80;3.90;;;;;;;30.39;32.61;100768.39;102628;279;93214;-64
2023/05/29 05:50:15;;;;;;;6.20;4.00;;;;;;;30.48;32.78;100767.23;102173;267;444522;-64
2023/05/29 05:52:57;;;;;;;7.50;3.70;;;;;;;31.03;31.98;100765.14;102513;279;121177;-63
2023/05/29 05:55:35;;;;;;;8.80;3.10;;;;;;;31.34;31.40;100767.88;102477;279;106214;-64
2023/05/29 05:58:16;;;;;;;5.00;2.60;;;;;;;31.49;30.36;100760.52;102483;279;115118;-54
2023/05/29 06:01:00;;;;;;;7.00;2.90;;;;;;;31.47;29.62;100761.91;102546;267;93381;-58
2023/05/29 06:03:44;;;;;;;9.40;3.60;;;;;;;31.79;29.52;100760.52;102530;279;96073;-57
2023/05/29 06:06:28;;;;;;;9.00;3.00;;;;;;;32.31;29.00;100759.46;102505;279;119910;-56
2023/05/29 06:09:08;;;;;;;5.80;2.80;;;;;;;32.40;28.84;100761.16;102473;279;105909;-58
2023/05/29 06:11:44;;;;;;;7.40;2.50;;;;;;;32.75;28.37;100759.76;102513;279;115020;-55
2023/05/29 06:14:29;;;;;;;8.20;3.10;;;;;;;32.76;28.18;100760.45;102523;279;94468;-55
2023/05/29 06:17:08;;;;;;;5.80;2.30;;;;;;;33.04;27.45;100761.87;102470;279;97262;-57
2023/05/29 06:19:43;;;;;;;9.00;3.20;;;;;;;33.97;27.05;100755.06;102551;279;120569;-57
2023/05/29 06:22:25;;;;;;;4.20;2.30;;;;;;;34.19;26.58;100753.32;102572;279;105278;-62
2023/05/29 06:25:06;;;;;;;6.10;2.40;;;;;;;34.07;25.98;100751.71;102526;279;114530;-58
2023/05/29 06:27:50;;;;;;;4.10;1.70;;;;;;;34.08;25.81;100753.93;102526;279;92792;-56
2023/05/29 06:30:28;;;;;;;6.10;1.90;;;;;;;33.98;25.79;100759.02;102544;279;96844;-58
2023/05/29 06:33:06;;;;;;;3.80;1.80;;;;;;;33.97;25.54;100757.59;102533;279;119109;-60
2023/05/29 06:35:44;;;;;;;4.50;1.80;;;;;;;34.08;25.36;100760.63;102534;279;104933;-54
2023/05/29 06:38:25;;;;;;;5.20;2.10;;;;;;;34.16;24.69;100754.58;102384;280;114428;-55
2023/05/29 06:41:01;;;;;;;7.50;2.40;;;;;;;34.70;24.81;100754.94;102446;278;94026;-59
2023/05/29 06:43:35;;;;;;;4.50;1.60;;;;;;;34.91;24.58;100751.42;102530;279;96873;-58
2023/05/29 06:46:12;;;;;;;5.90;2.20;;;;;;;35.32;23.95;100753.43;102524;279;120302;-55
2023/05/29 06:48:51;;;;;;;5.90;2.10;;;;;;;35.70;23.68;100748.96;102516;279;105066;-54
2023/05/29 06:51:32;;;;;;;6.20;2.00;;;;;;;35.55;22.71;100751.08;102478;279;114147;-54
2023/05/29 06:54:07;;;;;;;4.20;1.80;;;;;;;35.00;22.85;100752.80;102512;279;94539;-54
2023/05/29 06:56:48;;;;;;;9.00;2.00;;;;;;;35.01;22.91;100753.95;102509;279;97453;-55
2023/05/29 06:59:34;;;;;;;5.20;1.90;;;;;;;35.28;23.53;100750.10;102532;279;120939;-56
2023/05/29 07:02:11;;;;;;;7.20;2.30;;;;;;;35.46;22.73;100748.66;102598;279;106459;-58
2023/05/29 07:04:51;;;;;;;6.30;2.10;;;;;;;35.95;22.00;100751.52;102434;279;113088;-58
2023/05/29 07:07:37;;;;;;;4.40;2.10;;;;;;;36.22;22.26;100755.49;102593;266;93887;-58
2023/05/29 07:10:15;;;;;;;5.20;1.90;;;;;;;36.52;21.89;100757.78;102600;277;97238;-58
2023/05/29 07:12:58;;;;;;;4.00;1.90;;;;;;;36.81;22.17;100759.45;102647;278;118218;-57
2023/05/29 07:15:39;;;;;;;3.30;1.80;;;;;;;36.21;21.41;100757.61;102627;277;104847;-58
2023/05/29 07:18:21;;;;;;;3.20;1.50;;;;;;;36.38;21.12;100762.13;102623;277;113519;-57
2023/05/29 07:20:58;;;;;;;7.30;1.50;;;;;;;35.85;20.95;100759.61;102611;277;93652;-57
2023/05/29 07:23:38;;;;;;;4.20;2.00;;;;;;;35.92;21.10;100763.88;102592;277;97129;-61
2023/05/29 07:26:18;;;;;;;4.30;1.60;;;;;;;36.29;21.10;100768.52;102632;277;120150;-59
2023/05/29 07:29:00;;;;;;;5.90;1.80;;;;;;;36.02;20.27;100767.20;102590;277;104854;-60
2023/05/29 07:31:41;;;;;;;1.60;1.20;;;;;;;35.69;19.99;100773.42;102596;278;115175;-60
2023/05/29 07:34:19;;;;;;;3.10;1.40;;;;;;;35.57;20.06;100771.54;102536;277;93523;-60
2023/05/29 07:37:08;;;;;;;4.40;1.30;;;;;;;35.69;19.96;100769.88;102640;277;96570;-60
2023/05/29 07:39:44;;;;;;;6.70;1.90;;;;;;;35.79;19.42;100770.82;102585;277;120003;-60
2023/05/29 07:42:24;;;;;;;2.10;1.40;;;;;;;36.23;19.22;100771.50;102745;266;103416;-60
2023/05/29 07:45:08;;;;;;;4.00;1.50;;;;;;;36.60;18.99;100774.83;102633;278;113909;-59
2023/05/29 07:47:52;;;;;;;3.30;1.50;;;;;;;36.80;19.07;100776.97;102631;277;95150;-59
2023/05/29 07:50:31;;;;;;;4.40;1.60;;;;;;;36.92;18.62;100771.23;102693;277;97519;-58
2023/05/29 07:53:16;;;;;;;4.30;2.00;;;;;;;36.75;18.40;100769.26;102685;277;120873;-56
2023/05/29 07:55:56;;;;;;;6.10;1.60;;;;;;;36.78;19.08;100771.60;102650;277;105457;-60
2023/05/29 07:58:44;;;;;;;3.30;1.60;;;;;;;36.91;19.32;100766.70;102606;277;113275;-57
2023/05/29 08:01:21;;;;;;;4.70;1.60;;;;;;;37.03;18.89;100768.02;102506;278;94415;-59
2023/05/29 08:03:59;;;;;;;4.20;1.60;;;;;;;37.05;18.64;100770.34;102597;277;96038;-59
2023/05/29 08:06:34;;;;;;;4.70;1.60;;;;;;;37.25;18.45;100767.30;102600;277;120307;-57
2023/05/29 08:09:17;;;;;;;4.70;1.90;;;;;;;37.13;18.16;100768.34;102475;279;103911;-57
2023/05/29 08:11:54;;;;;;;4.50;1.80;;;;;;;36.99;17.94;100772.25;102464;279;116149;-57
2023/05/29 08:14:31;;;;;;;3.30;1.80;;;;;;;36.74;17.72;100772.92;102498;279;93011;-55
2023/05/29 08:17:09;;;;;;;5.80;1.90;;;;;;;36.75;18.01;100767.73;102480;279;98211;-57
2023/05/29 08:19:50;;;;;;;5.10;1.70;;;;;;;36.78;17.92;100766.63;102483;279;120842;-58
2023/05/29 08:22:34;;;;;;;2.50;1.30;;;;;;;36.67;18.10;100767.64;102452;279;104684;-57
2023/05/29 08:25:10;;;;;;;3.70;1.80;;;;;;;36.55;18.17;100767.92;102351;279;115738;-60
2023/05/29 08:27:55;;;;;;;4.50;2.00;;;;;;;36.70;18.29;100769.05;102502;279;92875;-61
2023/05/29 08:30:36;;;;;;;5.60;1.70;;;;;;;36.77;18.16;100765.05;102496;279;96549;-60
2023/05/29 08:33:18;;;;;;;3.20;1.80;;;;;;;36.75;18.19;100760.24;102447;279;120764;-61
2023/05/29 08:35:56;;;;;;;3.70;1.80;;;;;;;36.47;18.35;100764.60;102472;279;104659;-58
2023/05/29 08:38:35;;;;;;;4.00;1.80;;;;;;;36.64;18.46;100766.03;102492;279;114537;-58
2023/05/29 08:41:29;;;;;;;4.30;1.50;;;;;;;36.48;18.08;100763.30;102480;279;93763;-59
2023/05/29 08:44:09;;;;;;;4.70;2.30;;;;;;;35.91;18.06;100761.58;102465;267;97649;-58
2023/05/29 08:46:56;;;;;;;4.20;1.90;;;;;;;35.76;18.14;100763.14;102446;278;121122;-57
2023/05/29 08:49:41;;;;;;;6.40;1.80;;;;;;;35.51;18.11;100765.05;102479;278;105835;-56
2023/05/29 08:52:26;;;;;;;4.80;1.50;;;;;;;35.17;18.71;100763.56;102532;278;112562;-57
2023/05/29 08:55:04;;;;;;;3.40;1.60;;;;;;;35.17;19.12;100761.70;102482;279;93841;-57
2023/05/29 08:57:52;;;;;;;4.00;1.60;;;;;;;34.62;18.97;100766.33;102484;267;97490;-56
2023/05/29 09:00:33;;;;;;;2.90;1.70;;;;;;;34.05;19.29;100761.95;102527;279;119416;-58
2023/05/29 09:03:09;;;;;;;2.50;1.40;;;;;;;33.53;19.92;100764.56;102502;278;105233;-58
2023/05/29 09:05:47;;;;;;;4.30;1.70;;;;;;;33.05;19.87;100764.64;102486;278;113121;-61
2023/05/29 09:08:30;;;;;;;4.80;1.60;;;;;;;32.45;20.25;100763.90;102514;278;93944;-60
2023/05/29 09:11:10;;;;;;;3.60;1.70;;;;;;;32.03;20.21;100760.67;102600;277;96230;-56
2023/05/29 09:14:35;;;;;;;5.60;1.80;;;;;;;31.09;20.35;100759.60;102574;277;120585;-56
2023/05/29 09:17:15;;;;;;;2.60;1.70;;;;;;;30.56;21.20;100755.09;102636;278;104877;-59
2023/05/29 09:19:58;;;;;;;4.20;1.60;;;;;;;30.21;21.29;100754.92;102594;277;114112;-58
2023/05/29 09:22:39;;;;;;;3.80;1.70;;;;;;;29.95;21.92;100751.98;102606;277;93327;-56
2023/05/29 09:25:21;;;;;;;4.30;1.90;;;;;;;29.73;22.43;100752.08;102600;277;95770;-57
2023/05/29 09:28:10;;;;;;;7.00;2.10;;;;;;;29.55;22.48;100756.98;102586;277;121056;-58
2023/05/29 09:30:48;;;;;;;3.60;2.00;;;;;;;29.36;23.27;100757.89;102594;277;105358;-60
2023/05/29 09:33:28;;;;;;;3.90;1.90;;;;;;;29.37;23.70;100754.14;102583;277;112637;-61
2023/05/29 09:36:27;;;;;;;6.00;1.90;;;;;;;29.11;23.50;100753.55;102577;277;94216;-57
2023/05/29 09:39:05;;;;;;;7.00;1.90;;;;;;;28.79;23.39;100751.16;102601;277;98147;-58
2023/05/29 09:41:49;;;;;;;4.70;2.10;;;;;;;28.58;24.13;100753.02;102577;278;121433;-59
2023/05/29 09:44:32;;;;;;;4.30;2.00;;;;;;;28.76;24.89;100747.73;102394;279;104784;-56
2023/05/29 09:47:20;;;;;;;6.00;2.30;;;;;;;28.59;24.47;100746.78;102586;277;112990;-54
2023/05/29 09:50:01;;;;;;;4.10;2.00;;;;;;;28.51;24.88;100748.12;102585;277;93179;-54
2023/05/29 09:52:39;;;;;;;4.40;2.10;;;;;;;28.39;24.86;100749.23;102641;278;97546;-55
2023/05/29 09:55:26;;;;;;;5.40;2.00;;;;;;;28.04;24.62;100750.44;102589;277;120419;-55
2023/05/29 09:58:01;;;;;;;;;;;;;;;27.98;24.51;100745.88;102641;277;104876;-54
2023/05/29 10:00:41;;;;;;;4.40;1.90;;;;;;;27.73;24.78;100750.00;102447;278;113798;-55
2023/05/29 10:03:34;;;;;;;5.10;2.30;;;;;;;27.82;24.81;100746.63;102699;278;93705;-54
2023/05/29 10:06:20;;;;;;;4.10;2.00;;;;;;;27.61;24.40;100740.30;102646;277;98150;-53
2023/05/29 10:09:00;;;;;;;5.50;2.20;;;;;;;27.67;25.46;100737.45;102614;277;120992;-53
2023/05/29 10:11:36;;;;;;;6.10;2.10;;;;;;;27.72;25.35;100736.96;102619;277;104443;-57
2023/05/29 10:14:20;;;;;;;5.50;2.00;;;;;;;27.46;24.87;100735.63;102615;277;114841;-70
2023/05/29 10:17:03;;;;;;;4.90;2.10;;;;;;;26.90;25.02;100732.66;102617;277;93801;-67
2023/05/29 10:19:43;;;;;;;4.60;1.80;;;;;;;26.61;25.16;100732.95;102617;277;98154;-68
2023/05/29 10:22:26;;;;;;;3.50;1.90;;;;;;;26.25;25.94;100728.67;102633;277;120504;-67
2023/05/29 10:25:05;;;;;;;6.30;2.00;;;;;;;26.35;26.40;100725.80;102630;277;105434;-67
2023/05/29 10:27:43;;;;;;;4.40;1.90;;;;;;;26.29;26.70;100723.55;102591;277;114725;-67
2023/05/29 10:30:35;;;;;;;2.70;1.30;;;;;;;26.01;27.28;100726.59;102556;277;94418;-68
2023/05/29 10:33:50;;;;;;;5.10;1.70;;;;;;;25.58;28.10;100724.45;102647;277;98062;-69
2023/05/29 10:36:38;;;;;;;4.00;1.80;;;;;;;25.22;28.90;100729.52;102638;277;119593;-70
2023/05/29 10:39:24;;;;;;;5.20;1.60;;;;;;;24.99;29.41;100730.58;102620;277;105538;-69
2023/05/29 10:42:08;;;;;;;3.80;1.80;;;;;;;25.10;29.78;100730.07;102553;278;113959;-68
2023/05/29 10:44:48;;;;;;;4.10;2.00;;;;;;;25.34;29.89;100730.13;102567;277;95186;-68
2023/05/29 10:47:38;;;;;;;3.00;1.70;;;;;;;25.15;29.74;100727.70;102692;277;96823;-70
2023/05/29 10:50:43;;;;;;;5.50;1.90;;;;;;;25.09;29.26;100726.65;102648;266;121341;-69
2023/05/29 10:53:28;;;;;;;5.30;1.80;;;;;;;25.40;29.18;100722.70;102670;278;105494;-68
2023/05/29 10:56:22;;;;;;;6.20;2.00;;;;;;;25.77;29.30;100722.09;102670;277;114018;-68
2023/05/29 10:59:02;;;;;;;4.40;1.80;;;;;;;25.90;28.31;100724.64;102690;277;94848;-69
2023/05/29 11:01:41;;;;;;;4.90;1.70;;;;;;;26.20;28.45;100715.12;102728;277;95981;-69
2023/05/29 11:04:41;;;;;;;3.10;1.70;;;;;;;26.50;28.19;100714.73;102540;278;120209;-68
2023/05/29 11:07:59;;;;;;;5.30;1.80;;;;;;;26.68;27.67;100705.63;102670;278;105336;-68
2023/05/29 11:11:01;;;;;;;4.70;2.20;;;;;;;26.59;27.33;100701.75;102647;277;113523;-56
2023/05/29 11:13:52;;;;;;;4.30;1.90;;;;;;;26.80;27.15;100701.58;102571;277;97717;-57
2023/05/29 11:16:42;;;;;;;6.10;2.40;;;;;;;26.81;27.10;100699.00;102592;277;98489;-57
2023/05/29 11:19:20;;;;;;;4.40;2.00;;;;;;;26.94;27.38;100700.73;102610;277;119409;-57
2023/05/29 11:22:17;;;;;;;4.10;1.70;;;;;;;27.25;27.54;100695.63;102599;277;105597;-54
2023/05/29 11:24:58;;;;;;;4.60;1.60;;;;;;;27.38;27.80;100697.79;102542;277;114874;-53
2023/05/29 11:27:33;;;;;;;5.70;1.90;;;;;;;27.75;28.11;100701.29;102580;277;95096;-54
2023/05/29 11:30:14;;;;;;;4.60;1.70;;;;;;;27.67;27.24;100702.98;102588;277;97057;-52
2023/05/29 11:33:01;;;;;;;2.80;1.70;;;;;;;27.38;26.78;100701.61;102582;277;121112;-57
2023/05/29 11:35:41;;;;;;;4.00;1.80;;;;;;;27.05;26.84;100700.59;102662;277;104913;-56
2023/05/29 11:38:18;;;;;;;5.40;2.10;;;;;;;26.84;26.72;100696.60;102618;277;114560;-58
2023/05/29 11:40:55;;;;;;;4.70;1.80;;;;;;;26.53;26.48;100699.80;102662;277;95391;-57
2023/05/29 11:43:33;;;;;;;3.90;2.00;;;;;;;26.23;26.56;100700.09;102655;277;96655;-55
2023/05/29 11:46:21;;;;;;;2.70;1.60;;;;;;;25.98;27.04;100697.36;102658;277;120090;-55
2023/05/29 11:49:05;;;;;;;3.70;1.90;;;;;;;25.65;27.34;100697.76;102691;277;104782;-54
2023/05/29 11:51:47;;;;;;;4.40;2.00;;;;;;;25.45;27.70;100696.36;102428;278;115792;-58
2023/05/29 11:54:25;;;;;;;3.40;1.80;;;;;;;25.45;28.88;100696.20;102684;277;94618;-59
2023/05/29 11:57:21;;;;;;;4.10;1.90;;;;;;;25.40;29.36;100691.77;102703;277;98183;-56
2023/05/29 12:00:05;;;;;;;3.90;1.80;;;;;;;25.39;29.09;100688.67;102628;277;120681;-60
2023/05/29 12:02:42;;;;;;;2.90;1.70;;;;;;;25.45;28.71;100691.33;102429;277;106704;-58
2023/05/29 12:05:25;;;;;;;4.10;2.00;;;;;;;25.40;28.58;100691.16;102584;277;115527;-58
2023/05/29 12:08:01;;;;;;;2.80;1.70;;;;;;;25.28;28.58;100689.19;102560;277;93755;-55
2023/05/29 12:10:48;;;;;;;4.20;2.00;;;;;;;25.16;28.23;100691.91;102591;277;98277;-57
2023/05/29 12:13:33;;;;;;;5.70;1.70;;;;;;;25.04;28.18;100683.64;102649;277;120777;-57
2023/05/29 12:16:12;;;;;;;7.00;2.60;;;;;;;25.23;28.01;100684.81;102634;277;106005;-57
2023/05/29 12:18:53;;;;;;;5.00;1.90;;;;;;;25.46;28.23;100681.98;102626;277;115010;-57
2023/05/29 12:21:31;;;;;;;4.40;1.80;;;;;;;25.72;28.39;100680.52;102599;277;93461;-58
2023/05/29 12:24:14;;;;;;;6.30;1.90;;;;;;;25.94;27.92;100675.95;102621;277;97552;-59
2023/05/29 12:26:50;;;;;;;3.40;1.60;;;;;;;26.19;27.78;100674.40;102675;278;119515;-58
2023/05/29 12:29:35;;;;;;;6.70;1.90;;;;;;;26.33;27.61;100674.77;102665;277;104494;-54
2023/05/29 12:32:21;;;;;;;4.20;1.90;;;;;;;26.29;27.27;100675.90;102633;277;114554;-55